sensor_id;sensor_type;location;lat;lon;timestamp;pressure;altitude;pressure_sealevel;temperature;humidity
6899;BME280;3488;42.616;23.350;2023-06-10T00:01:32;63745.09;;;16.88;100.00
6899;BME280;3488;42.616;23.350;2023-06-10T00:04:02;63739.41;;;16.82;100.00
6899;BME280;3488;42.616;23.350;2023-06-10T00:06:29;63745.59;;;16.86;100.00
6899;BME280;3488;42.616;23.350;2023-06-10T00:09:02;63739.41;;;16.85;100.00
6899;BME280;3488;42.616;23.350;2023-06-10T00:11:32;63746.09;;;16.84;100.00
6899;BME280;3488;42.616;23.350;2023-06-10T00:13:59;63746.16;;;16.89;100.00
6899;BME280;3488;42.616;23.350;2023-06-10T00:16:27;63732.16;;;16.80;100.00
6899;BME280;3488;42.616;23.350;2023-06-10T00:18:54;63726.44;;;16.75;100.00
6899;BME280;3488;42.616;23.350;2023-06-10T00:21:25;63719.09;;;16.63;100.00
6899;BME280;3488;42.616;23.350;2023-06-10T00:23:52;63718.09;;;16.64;100.00
6899;BME280;3488;42.616;23.350;2023-06-10T00:26:21;63721.19;;;16.67;100.00
6899;BME280;3488;42.616;23.350;2023-06-10T00:28:49;63721.19;;;16.67;100.00
6899;BME280;3488;42.616;23.350;2023-06-10T00:31:18;63737.28;;;16.78;100.00
6899;BME280;3488;42.616;23.350;2023-06-10T00:33:45;63724.34;;;16.70;100.00
6899;BME280;3488;42.616;23.350;2023-06-10T00:36:12;63725.84;;;16.67;100.00
6899;BME280;3488;42.616;23.350;2023-06-10T00:38:39;63718.63;;;16.67;100.00
6899;BME280;3488;42.616;23.350;2023-06-10T00:41:06;63720.19;;;16.69;100.00
6899;BME280;3488;42.616;23.350;2023-06-10T00:43:34;63725.38;;;16.71;100.00
6899;BME280;3488;42.616;23.350;2023-06-10T00:46:02;63726.41;;;16.72;100.00
6899;BME280;3488;42.616;23.350;2023-06-10T00:48:30;63732.13;;;16.78;100.00
6899;BME280;3488;42.616;23.350;2023-06-10T00:50:57;63732.09;;;16.75;100.00
6899;BME280;3488;42.616;23.350;2023-06-10T00:53:25;63731.63;;;16.77;100.00
6899;BME280;3488;42.616;23.350;2023-06-10T00:55:53;63737.31;;;16.80;100.00
6899;BME280;3488;42.616;23.350;2023-06-10T00:58:20;63743.53;;;16.84;100.00
6899;BME280;3488;42.616;23.350;2023-06-10T01:00:48;63733.19;;;16.81;100.00
6899;BME280;3488;42.616;23.350;2023-06-10T01:03:16;63743.53;;;16.84;100.00
6899;BME280;3488;42.616;23.350;2023-06-10T01:05:44;63736.28;;;16.82;100.00
6899;BME280;3488;42.616;23.350;2023-06-10T01:08:28;63734.69;;;16.75;100.00
6899;BME280;3488;42.616;23.350;2023-06-10T01:11:00;63734.19;;;16.77;100.00
6899;BME280;3488;42.616;23.350;2023-06-10T01:13:29;63731.09;;;16.77;100.00
6899;BME280;3488;42.616;23.350;2023-06-10T01:15:57;63736.25;;;16.77;100.00
6899;BME280;3488;42.616;23.350;2023-06-10T01:18:31;63733.13;;;16.76;100.00
6899;BME280;3488;42.616;23.350;2023-06-10T01:20:58;63735.78;;;16.81;100.00
6899;BME280;3488;42.616;23.350;2023-06-10T01:23:27;63735.22;;;16.78;100.00
6899;BME280;3488;42.616;23.350;2023-06-10T01:25:58;63735.75;;;16.79;100.00
6899;BME280;3488;42.616;23.350;2023-06-10T01:28:31;63734.75;;;16.80;100.00
6899;BME280;3488;42.616;23.350;2023-06-10T01:31:09;63744.03;;;16.84;100.00
6899;BME280;3488;42.616;23.350;2023-06-10T01:33:42;63745.59;;;16.86;100.00
6899;BME280;3488;42.616;23.350;2023-06-10T01:36:09;63739.97;;;16.88;100.00
6899;BME280;3488;42.616;23.350;2023-06-10T01:38:42;63746.16;;;16.89;100.00
6899;BME280;3488;42.616;23.350;2023-06-10T01:41:09;63734.69;;;16.78;100.00
6899;BME280;3488;42.616;23.350;2023-06-10T01:43:38;63732.63;;;16.76;100.00
6899;BME280;3488;42.616;23.350;2023-06-10T01:46:05;63723.81;;;16.72;100.00
6899;BME280;3488;42.616;23.350;2023-06-10T01:48:32;63731.63;;;16.80;100.00
6899;BME280;3488;42.616;23.350;2023-06-10T01:50:59;63735.78;;;16.81;100.00
6899;BME280;3488;42.616;23.350;2023-06-10T01:53:26;63731.13;;;16.79;100.00
6899;BME280;3488;42.616;23.350;2023-06-10T01:55:54;63733.13;;;16.76;100.00
6899;BME280;3488;42.616;23.350;2023-06-10T01:58:21;63734.22;;;16.80;100.00
6899;BME280;3488;42.616;23.350;2023-06-10T02:00:48;63737.28;;;16.78;100.00
6899;BME280;3488;42.616;23.350;2023-06-10T02:03:15;63734.69;;;16.75;100.00
6899;BME280;3488;42.616;23.350;2023-06-10T02:05:44;63728.47;;;16.74;100.00
6899;BME280;3488;42.616;23.350;2023-06-10T02:08:10;63730.03;;;16.76;100.00
6899;BME280;3488;42.616;23.350;2023-06-10T02:10:37;63727.47;;;16.76;100.00
6899;BME280;3488;42.616;23.350;2023-06-10T02:13:07;63729.50;;;16.73;100.00
6899;BME280;3488;42.616;23.350;2023-06-10T02:15:34;63731.03;;;16.72;100.00
6899;BME280;3488;42.616;23.350;2023-06-10T02:18:01;63724.84;;;16.71;100.00
6899;BME280;3488;42.616;23.350;2023-06-10T02:20:28;63731.06;;;16.74;100.00
6899;BME280;3488;42.616;23.350;2023-06-10T02:22:55;63732.09;;;16.75;100.00
6899;BME280;3488;42.616;23.350;2023-06-10T02:25:22;63724.88;;;16.73;100.00
6899;BME280;3488;42.616;23.350;2023-06-10T02:27:49;63731.09;;;16.77;100.00
6899;BME280;3488;42.616;23.350;2023-06-10T02:30:17;63733.69;;;16.79;100.00
6899;BME280;3488;42.616;23.350;2023-06-10T02:32:44;63737.81;;;16.81;100.00
6899;BME280;3488;42.616;23.350;2023-06-10T02:35:13;63736.75;;;16.77;100.00
6899;BME280;3488;42.616;23.350;2023-06-10T02:37:40;63729.00;;;16.75;100.00
6899;BME280;3488;42.616;23.350;2023-06-10T02:40:08;63733.66;;;16.77;100.00
6899;BME280;3488;42.616;23.350;2023-06-10T02:42:36;63729.56;;;16.78;100.00
6899;BME280;3488;42.616;23.350;2023-06-10T02:45:03;63727.47;;;16.76;100.00
6899;BME280;3488;42.616;23.350;2023-06-10T02:47:32;63735.75;;;16.79;100.00
6899;BME280;3488;42.616;23.350;2023-06-10T02:49:59;63731.59;;;16.75;100.00
6899;BME280;3488;42.616;23.350;2023-06-10T02:52:26;63731.09;;;16.77;100.00
6899;BME280;3488;42.616;23.350;2023-06-10T02:54:53;63726.44;;;16.75;100.00
6899;BME280;3488;42.616;23.350;2023-06-10T02:57:20;63727.41;;;16.71;100.00
6899;BME280;3488;42.616;23.350;2023-06-10T02:59:47;63726.91;;;16.70;100.00
6899;BME280;3488;42.616;23.350;2023-06-10T03:02:14;63730.03;;;16.76;100.00
6899;BME280;3488;42.616;23.350;2023-06-10T03:04:42;63735.19;;;16.76;100.00
6899;BME280;3488;42.616;23.350;2023-06-10T03:07:10;63729.50;;;16.73;100.00
6899;BME280;3488;42.616;23.350;2023-06-10T03:09:38;63733.13;;;16.74;100.00
6899;BME280;3488;42.616;23.350;2023-06-10T03:12:05;63728.00;;;16.76;100.00
6899;BME280;3488;42.616;23.350;2023-06-10T03:14:33;63740.91;;;16.81;100.00
6899;BME280;3488;42.616;23.350;2023-06-10T03:17:00;63738.88;;;16.82;100.00
6899;BME280;3488;42.616;23.350;2023-06-10T03:19:27;63738.88;;;16.82;100.00
6899;BME280;3488;42.616;23.350;2023-06-10T03:21:58;63736.81;;;16.82;100.00
6899;BME280;3488;42.616;23.350;2023-06-10T03:24:33;63743.59;;;16.89;100.00
6899;BME280;3488;42.616;23.350;2023-06-10T03:27:02;63740.44;;;16.83;100.00
6899;BME280;3488;42.616;23.350;2023-06-10T03:29:30;63751.84;;;16.92;100.00
6899;BME280;3488;42.616;23.350;2023-06-10T03:31:57;63752.91;;;16.95;100.00
6899;BME280;3488;42.616;23.350;2023-06-10T03:34:24;63753.97;;;16.99;100.00
6899;BME280;3488;42.616;23.350;2023-06-10T03:36:51;63758.59;;;16.98;100.00
6899;BME280;3488;42.616;23.350;2023-06-10T03:39:19;63747.22;;;16.92;100.00
6899;BME280;3488;42.616;23.350;2023-06-10T03:41:46;63745.66;;;16.91;100.00
6899;BME280;3488;42.616;23.350;2023-06-10T03:44:13;63745.09;;;16.85;100.00
6899;BME280;3488;42.616;23.350;2023-06-10T03:46:40;63730.59;;;16.79;100.00
6899;BME280;3488;42.616;23.350;2023-06-10T03:49:07;63712.34;;;16.56;100.00
6899;BME280;3488;42.616;23.350;2023-06-10T03:51:35;63705.66;;;16.57;100.00
6899;BME280;3488;42.616;23.350;2023-06-10T03:54:02;63708.22;;;16.57;100.00
6899;BME280;3488;42.616;23.350;2023-06-10T03:56:31;63707.16;;;16.54;100.00
6899;BME280;3488;42.616;23.350;2023-06-10T03:58:58;63722.69;;;16.61;100.00
6899;BME280;3488;42.616;23.350;2023-06-10T04:01:25;63727.41;;;16.68;100.00
6899;BME280;3488;42.616;23.350;2023-06-10T04:03:53;63732.09;;;16.75;100.00
6899;BME280;3488;42.616;23.350;2023-06-10T04:06:20;63731.59;;;16.75;100.00
6899;BME280;3488;42.616;23.350;2023-06-10T04:08:50;63728.53;;;16.77;100.00
6899;BME280;3488;42.616;23.350;2023-06-10T04:11:19;63730.03;;;16.76;100.00
6899;BME280;3488;42.616;23.350;2023-06-10T04:13:48;63733.19;;;16.79;100.00
6899;BME280;3488;42.616;23.350;2023-06-10T04:16:16;63741.97;;;16.82;100.00
6899;BME280;3488;42.616;23.350;2023-06-10T04:18:43;63735.19;;;16.76;100.00
6899;BME280;3488;42.616;23.350;2023-06-10T04:21:10;63732.56;;;16.71;100.00
6899;BME280;3488;42.616;23.350;2023-06-10T04:23:37;63723.31;;;16.72;100.00
6899;BME280;3488;42.616;23.350;2023-06-10T04:26:04;63722.75;;;16.66;100.00
6899;BME280;3488;42.616;23.350;2023-06-10T04:28:32;63721.69;;;16.65;100.00
6899;BME280;3488;42.616;23.350;2023-06-10T04:31:00;63725.38;;;16.71;100.00
6899;BME280;3488;42.616;23.350;2023-06-10T04:33:29;63732.16;;;16.80;100.00
6899;BME280;3488;42.616;23.350;2023-06-10T04:35:56;63739.41;;;16.85;100.00
6899;BME280;3488;42.616;23.350;2023-06-10T04:38:23;63746.69;;;16.89;100.00
6899;BME280;3488;42.616;23.350;2023-06-10T04:40:50;63765.38;;;17.05;100.00
6899;BME280;3488;42.616;23.350;2023-06-10T04:43:17;63761.81;;;17.06;100.00
6899;BME280;3488;42.616;23.350;2023-06-10T04:45:44;63768.53;;;17.10;100.00
6899;BME280;3488;42.616;23.350;2023-06-10T04:48:12;63768.03;;;17.12;100.00
6899;BME280;3488;42.616;23.350;2023-06-10T04:50:40;63784.66;;;17.26;100.00
6899;BME280;3488;42.616;23.350;2023-06-10T04:53:08;63786.78;;;17.30;100.00
6899;BME280;3488;42.616;23.350;2023-06-10T04:55:35;63791.94;;;17.30;100.00
6899;BME280;3488;42.616;23.350;2023-06-10T04:58:02;63783.66;;;17.27;100.00
6899;BME280;3488;42.616;23.350;2023-06-10T05:00:29;63787.78;;;17.29;100.00
6899;BME280;3488;42.616;23.350;2023-06-10T05:02:55;63779.97;;;17.21;100.00
6899;BME280;3488;42.616;23.350;2023-06-10T05:05:24;63807.00;;;17.45;100.00
6899;BME280;3488;42.616;23.350;2023-06-10T05:07:51;63806.03;;;17.47;100.00
6899;BME280;3488;42.616;23.350;2023-06-10T05:10:18;63792.47;;;17.33;100.00
6899;BME280;3488;42.616;23.350;2023-06-10T05:12:45;63793.00;;;17.37;100.00
6899;BME280;3488;42.616;23.350;2023-06-10T05:15:12;63800.38;;;17.46;100.00
6899;BME280;3488;42.616;23.350;2023-06-10T05:17:39;63800.78;;;17.42;100.00
6899;BME280;3488;42.616;23.350;2023-06-10T05:20:06;63798.22;;;17.42;100.00
6899;BME280;3488;42.616;23.350;2023-06-10T05:22:35;63816.47;;;17.59;100.00
6899;BME280;3488;42.616;23.350;2023-06-10T05:25:02;63823.78;;;17.69;100.00
6899;BME280;3488;42.616;23.350;2023-06-10T05:27:29;63820.16;;;17.65;100.00
6899;BME280;3488;42.616;23.350;2023-06-10T05:29:56;63808.66;;;17.52;100.00
6899;BME280;3488;42.616;23.350;2023-06-10T05:32:23;63804.97;;;17.46;100.00
6899;BME280;3488;42.616;23.350;2023-06-10T05:34:50;63802.34;;;17.43;100.00
6899;BME280;3488;42.616;23.350;2023-06-10T05:37:17;63807.09;;;17.50;100.00
6899;BME280;3488;42.616;23.350;2023-06-10T05:39:46;63819.03;;;17.57;100.00
6899;BME280;3488;42.616;23.350;2023-06-10T05:42:13;63812.28;;;17.53;100.00
6899;BME280;3488;42.616;23.350;2023-06-10T05:44:39;63814.91;;;17.60;100.00
6899;BME280;3488;42.616;23.350;2023-06-10T05:47:07;63816.00;;;17.64;100.00
6899;BME280;3488;42.616;23.350;2023-06-10T05:49:34;63834.66;;;17.74;100.00
6899;BME280;3488;42.616;23.350;2023-06-10T05:52:01;63845.13;;;17.89;100.00
6899;BME280;3488;42.616;23.350;2023-06-10T05:54:28;63869.03;;;18.05;100.00
6899;BME280;3488;42.616;23.350;2023-06-10T05:56:56;63881.56;;;18.22;100.00
6899;BME280;3488;42.616;23.350;2023-06-10T05:59:23;63899.84;;;18.42;100.00
6899;BME280;3488;42.616;23.350;2023-06-10T06:01:50;63902.94;;;18.42;100.00
6899;BME280;3488;42.616;23.350;2023-06-10T06:04:17;63901.84;;;18.39;100.00
6899;BME280;3488;42.616;23.350;2023-06-10T06:06:44;63874.78;;;18.15;100.00
6899;BME280;3488;42.616;23.350;2023-06-10T06:09:11;63884.69;;;18.25;100.00
6899;BME280;3488;42.616;23.350;2023-06-10T06:11:38;63902.38;;;18.39;100.00
6899;BME280;3488;42.616;23.350;2023-06-10T06:14:07;63887.22;;;18.22;100.00
6899;BME280;3488;42.616;23.350;2023-06-10T06:16:33;63890.97;;;18.33;100.00
6899;BME280;3488;42.616;23.350;2023-06-10T06:19:00;63890.94;;;18.31;100.00
6899;BME280;3488;42.616;23.350;2023-06-10T06:21:27;63883.69;;;18.26;100.00
6899;BME280;3488;42.616;23.350;2023-06-10T06:23:54;63870.63;;;18.11;100.00
6899;BME280;3488;42.616;23.350;2023-06-10T06:26:21;63863.31;;;18.02;100.00
6899;BME280;3488;42.616;23.350;2023-06-10T06:28:48;63878.44;;;18.19;100.00
6899;BME280;3488;42.616;23.350;2023-06-10T06:31:17;63903.53;;;18.48;100.00
6899;BME280;3488;42.616;23.350;2023-06-10T06:33:44;63916.00;;;18.58;100.00
6899;BME280;3488;42.616;23.350;2023-06-10T06:36:12;63926.38;;;18.63;100.00
6899;BME280;3488;42.616;23.350;2023-06-10T06:38:39;63948.22;;;18.79;100.00
6899;BME280;3488;42.616;23.350;2023-06-10T06:41:05;63939.38;;;18.73;100.00
6899;BME280;3488;42.616;23.350;2023-06-10T06:43:32;63912.78;;;18.47;100.00
6899;BME280;3488;42.616;23.350;2023-06-10T06:45:59;63937.34;;;18.76;100.00
6899;BME280;3488;42.616;23.350;2023-06-10T06:48:28;63979.50;;;19.11;100.00
6899;BME280;3488;42.616;23.350;2023-06-10T06:50:55;64001.47;;;19.37;100.00
6899;BME280;3488;42.616;23.350;2023-06-10T06:53:24;64014.56;;;19.55;100.00
6899;BME280;3488;42.616;23.350;2023-06-10T06:55:51;64034.31;;;19.69;100.00
6899;BME280;3488;42.616;23.350;2023-06-10T06:58:18;64031.66;;;19.62;100.00
6899;BME280;3488;42.616;23.350;2023-06-10T07:00:45;64042.09;;;19.72;100.00
6899;BME280;3488;42.616;23.350;2023-06-10T07:03:12;64054.59;;;19.81;100.00
6899;BME280;3488;42.616;23.350;2023-06-10T07:05:40;64040.03;;;19.72;100.00
6899;BME280;3488;42.616;23.350;2023-06-10T07:08:07;64075.00;;;20.08;100.00
6899;BME280;3488;42.616;23.350;2023-06-10T07:10:34;64076.53;;;20.07;100.00
6899;BME280;3488;42.616;23.350;2023-06-10T07:13:02;64090.66;;;20.21;100.00
6899;BME280;3488;42.616;23.350;2023-06-10T07:15:29;64119.91;;;20.51;100.00
6899;BME280;3488;42.616;23.350;2023-06-10T07:17:56;64145.50;;;20.79;100.00
6899;BME280;3488;42.616;23.350;2023-06-10T07:20:23;64150.16;;;20.78;100.00
6899;BME280;3488;42.616;23.350;2023-06-10T07:22:51;64174.19;;;21.04;100.00
6899;BME280;3488;42.616;23.350;2023-06-10T07:25:19;64138.19;;;20.69;100.00
6899;BME280;3488;42.616;23.350;2023-06-10T07:27:46;64118.84;;;20.48;100.00
6899;BME280;3488;42.616;23.350;2023-06-10T07:30:13;64130.88;;;20.62;100.00
6899;BME280;3488;42.616;23.350;2023-06-10T07:32:40;64175.16;;;20.97;100.00
6899;BME280;3488;42.616;23.350;2023-06-10T07:35:09;64185.72;;;21.20;100.00
6899;BME280;3488;42.616;23.350;2023-06-10T07:37:37;64173.16;;;21.03;100.00
6899;BME280;3488;42.616;23.350;2023-06-10T07:40:07;64204.44;;;21.28;100.00
6899;BME280;3488;42.616;23.350;2023-06-10T07:42:35;64239.47;;;21.64;100.00
6899;BME280;3488;42.616;23.350;2023-06-10T07:45:02;64237.34;;;21.59;100.00
6899;BME280;3488;42.616;23.350;2023-06-10T07:47:33;64192.47;;;21.21;100.00
6899;BME280;3488;42.616;23.350;2023-06-10T07:50:01;64219.63;;;21.47;100.00
6899;BME280;3488;42.616;23.350;2023-06-10T07:52:28;64214.91;;;21.40;100.00
6899;BME280;3488;42.616;23.350;2023-06-10T07:54:56;64204.47;;;21.30;100.00
6899;BME280;3488;42.616;23.350;2023-06-10T07:57:25;64141.81;;;20.70;100.00
6899;BME280;3488;42.616;23.350;2023-06-10T07:59:51;64146.47;;;20.72;100.00
6899;BME280;3488;42.616;23.350;2023-06-10T08:02:20;64172.09;;;20.99;100.00
6899;BME280;3488;42.616;23.350;2023-06-10T08:04:47;64170.50;;;20.98;100.00
6899;BME280;3488;42.616;23.350;2023-06-10T08:07:14;64150.66;;;20.76;100.00
6899;BME280;3488;42.616;23.350;2023-06-10T08:09:41;64148.06;;;20.76;100.00
6899;BME280;3488;42.616;23.350;2023-06-10T08:12:08;64146.00;;;20.74;99.65
6899;BME280;3488;42.616;23.350;2023-06-10T08:14:37;64132.91;;;20.59;100.00
6899;BME280;3488;42.616;23.350;2023-06-10T08:17:04;64140.25;;;20.71;98.00
6899;BME280;3488;42.616;23.350;2023-06-10T08:19:32;64140.22;;;20.66;99.92
6899;BME280;3488;42.616;23.350;2023-06-10T08:21:59;64153.34;;;20.86;98.70
6899;BME280;3488;42.616;23.350;2023-06-10T08:24:25;64173.13;;;21.00;93.76
6899;BME280;3488;42.616;23.350;2023-06-10T08:26:52;64194.53;;;21.18;92.54
6899;BME280;3488;42.616;23.350;2023-06-10T08:29:20;64220.66;;;21.46;87.35
6899;BME280;3488;42.616;23.350;2023-06-10T08:31:48;64209.69;;;21.35;82.49
6899;BME280;3488;42.616;23.350;2023-06-10T08:34:15;64208.13;;;21.34;85.28
6899;BME280;3488;42.616;23.350;2023-06-10T08:36:43;64205.00;;;21.33;82.32
6899;BME280;3488;42.616;23.350;2023-06-10T08:39:10;64182.06;;;21.14;82.83
6899;BME280;3488;42.616;23.350;2023-06-10T08:41:41;64181.50;;;21.08;82.73
6899;BME280;3488;42.616;23.350;2023-06-10T08:44:14;64187.22;;;21.11;84.79
6899;BME280;3488;42.616;23.350;2023-06-10T08:46:45;64200.81;;;21.27;83.44
6899;BME280;3488;42.616;23.350;2023-06-10T08:49:18;64211.78;;;21.37;84.23
6899;BME280;3488;42.616;23.350;2023-06-10T08:51:48;64229.00;;;21.54;82.69
6899;BME280;3488;42.616;23.350;2023-06-10T08:54:20;64239.97;;;21.64;70.64
6899;BME280;3488;42.616;23.350;2023-06-10T08:56:49;64253.59;;;21.77;74.87
6899;BME280;3488;42.616;23.350;2023-06-10T08:59:18;64271.84;;;21.93;72.78
6899;BME280;3488;42.616;23.350;2023-06-10T09:01:47;64286.53;;;22.12;71.59
6899;BME280;3488;42.616;23.350;2023-06-10T09:04:16;64298.00;;;22.20;71.08
6899;BME280;3488;42.616;23.350;2023-06-10T09:06:44;64303.78;;;22.28;69.43
6899;BME280;3488;42.616;23.350;2023-06-10T09:09:14;64312.09;;;22.29;71.74
6899;BME280;3488;42.616;23.350;2023-06-10T09:11:42;64318.91;;;22.40;69.38
6899;BME280;3488;42.616;23.350;2023-06-10T09:14:09;64319.97;;;22.41;71.30
6899;BME280;3488;42.616;23.350;2023-06-10T09:16:38;64343.47;;;22.61;70.75
6899;BME280;3488;42.616;23.350;2023-06-10T09:19:06;64360.72;;;22.78;67.92
6899;BME280;3488;42.616;23.350;2023-06-10T09:21:36;64368.06;;;22.87;65.47
6899;BME280;3488;42.616;23.350;2023-06-10T09:24:05;64385.31;;;23.04;60.48
6899;BME280;3488;42.616;23.350;2023-06-10T09:26:32;64383.19;;;22.97;63.05
6899;BME280;3488;42.616;23.350;2023-06-10T09:31:30;64378.00;;;22.97;57.64
6899;BME280;3488;42.616;23.350;2023-06-10T09:34:05;64366.50;;;22.88;60.07
6899;BME280;3488;42.616;23.350;2023-06-10T09:36:32;64385.31;;;23.04;62.70
6899;BME280;3488;42.616;23.350;2023-06-10T09:39:01;64411.47;;;23.27;57.78
6899;BME280;3488;42.616;23.350;2023-06-10T09:41:34;64430.81;;;23.45;59.42
6899;BME280;3488;42.616;23.350;2023-06-10T09:44:02;64410.94;;;23.26;60.63
6899;BME280;3488;42.616;23.350;2023-06-10T09:46:35;64428.22;;;23.45;58.00
6899;BME280;3488;42.616;23.350;2023-06-10T09:49:02;64455.44;;;23.71;56.47
6899;BME280;3488;42.616;23.350;2023-06-10T09:51:29;64470.59;;;23.83;56.32
6899;BME280;3488;42.616;23.350;2023-06-10T09:53:56;64432.41;;;23.47;53.13
6899;BME280;3488;42.616;23.350;2023-06-10T09:56:34;64426.69;;;23.46;51.91
6899;BME280;3488;42.616;23.350;2023-06-10T09:59:02;64439.72;;;23.51;51.28
6899;BME280;3488;42.616;23.350;2023-06-10T10:01:31;64466.94;;;23.80;53.78
6899;BME280;3488;42.616;23.350;2023-06-10T10:03:59;64482.63;;;23.95;52.46
6899;BME280;3488;42.616;23.350;2023-06-10T10:06:27;64478.47;;;23.93;50.32
6899;BME280;3488;42.616;23.350;2023-06-10T10:08:54;64463.31;;;23.81;50.01
6899;BME280;3488;42.616;23.350;2023-06-10T10:11:22;64482.69;;;24.02;49.59
6899;BME280;3488;42.616;23.350;2023-06-10T10:13:53;64513.56;;;24.30;50.19
6899;BME280;3488;42.616;23.350;2023-06-10T10:16:21;64541.81;;;24.57;49.36
6899;BME280;3488;42.616;23.350;2023-06-10T10:18:52;64562.78;;;24.77;48.84
6899;BME280;3488;42.616;23.350;2023-06-10T10:21:22;64565.94;;;24.82;48.31
6899;BME280;3488;42.616;23.350;2023-06-10T10:23:53;64587.91;;;25.01;51.99
6899;BME280;3488;42.616;23.350;2023-06-10T10:26:26;64597.88;;;25.10;49.30
6899;BME280;3488;42.616;23.350;2023-06-10T10:29:02;64608.31;;;25.18;48.88
6899;BME280;3488;42.616;23.350;2023-06-10T10:31:33;64605.72;;;25.16;50.53
6899;BME280;3488;42.616;23.350;2023-06-10T10:34:06;64605.69;;;25.13;50.22
6899;BME280;3488;42.616;23.350;2023-06-10T10:36:34;64629.31;;;25.38;48.46
6899;BME280;3488;42.616;23.350;2023-06-10T10:39:02;64647.13;;;25.55;46.61
6899;BME280;3488;42.616;23.350;2023-06-10T10:41:31;64652.88;;;25.58;45.65
6899;BME280;3488;42.616;23.350;2023-06-10T10:44:00;64694.81;;;25.98;44.31
6899;BME280;3488;42.616;23.350;2023-06-10T10:46:30;64703.19;;;26.06;47.68
6899;BME280;3488;42.616;23.350;2023-06-10T10:49:09;64725.22;;;26.28;47.96
6899;BME280;3488;42.616;23.350;2023-06-10T10:51:37;64702.66;;;26.03;47.65
6899;BME280;3488;42.616;23.350;2023-06-10T10:54:10;64677.50;;;25.79;48.19
6899;BME280;3488;42.616;23.350;2023-06-10T10:56:38;64683.81;;;25.95;45.76
6899;BME280;3488;42.616;23.350;2023-06-10T10:59:07;64712.66;;;26.23;47.29
6899;BME280;3488;42.616;23.350;2023-06-10T11:01:41;64685.88;;;25.92;48.01
6899;BME280;3488;42.616;23.350;2023-06-10T11:04:11;64642.41;;;25.53;48.20
6899;BME280;3488;42.616;23.350;2023-06-10T11:06:38;64691.16;;;26.00;46.99
6899;BME280;3488;42.616;23.350;2023-06-10T11:09:26;64705.28;;;26.08;45.28
6899;BME280;3488;42.616;23.350;2023-06-10T11:11:56;64735.19;;;26.40;43.77
6899;BME280;3488;42.616;23.350;2023-06-10T11:14:28;64738.84;;;26.41;42.88
6899;BME280;3488;42.616;23.350;2023-06-10T11:16:57;64740.94;;;26.43;42.72
6899;BME280;3488;42.616;23.350;2023-06-10T11:19:34;64759.81;;;26.61;44.17
6899;BME280;3488;42.616;23.350;2023-06-10T11:22:03;64814.91;;;27.18;46.97
6899;BME280;3488;42.616;23.350;2023-06-10T11:24:30;64834.88;;;27.35;45.91
6899;BME280;3488;42.616;23.350;2023-06-10T11:27:15;64821.72;;;27.22;44.26
6899;BME280;3488;42.616;23.350;2023-06-10T11:29:58;64817.03;;;27.18;42.31
6899;BME280;3488;42.616;23.350;2023-06-10T11:32:29;64762.47;;;26.68;44.26
6899;BME280;3488;42.616;23.350;2023-06-10T11:34:57;64796.53;;;26.96;45.40
6899;BME280;3488;42.616;23.350;2023-06-10T11:37:24;64794.47;;;26.99;43.02
6899;BME280;3488;42.616;23.350;2023-06-10T11:39:52;64839.59;;;27.40;43.60
6899;BME280;3488;42.616;23.350;2023-06-10T11:42:20;64889.44;;;27.87;42.83
6899;BME280;3488;42.616;23.350;2023-06-10T11:44:49;64913.59;;;28.05;42.94
6899;BME280;3488;42.616;23.350;2023-06-10T11:47:19;64853.22;;;27.55;43.05
6899;BME280;3488;42.616;23.350;2023-06-10T11:49:56;64933.53;;;28.27;42.45
6899;BME280;3488;42.616;23.350;2023-06-10T11:52:26;64982.41;;;28.76;41.01
6899;BME280;3488;42.616;23.350;2023-06-10T11:54:54;65002.88;;;28.96;43.67
6899;BME280;3488;42.616;23.350;2023-06-10T11:57:21;65036.53;;;29.28;39.61
6899;BME280;3488;42.616;23.350;2023-06-10T11:59:48;65053.31;;;29.41;40.98
6899;BME280;3488;42.616;23.350;2023-06-10T12:02:16;65081.72;;;29.69;38.10
6899;BME280;3488;42.616;23.350;2023-06-10T12:04:45;65019.69;;;29.07;38.50
6899;BME280;3488;42.616;23.350;2023-06-10T12:07:18;65012.34;;;29.02;38.04
6899;BME280;3488;42.616;23.350;2023-06-10T12:09:45;64993.44;;;28.87;36.73
6899;BME280;3488;42.616;23.350;2023-06-10T12:12:12;64868.97;;;27.65;37.36
6899;BME280;3488;42.616;23.350;2023-06-10T12:14:50;64875.25;;;27.74;38.14
6899;BME280;3488;42.616;23.350;2023-06-10T12:17:20;64937.75;;;28.33;38.52
6899;BME280;3488;42.616;23.350;2023-06-10T12:19:49;64980.28;;;28.72;37.25
6899;BME280;3488;42.616;23.350;2023-06-10T12:22:16;65018.66;;;29.11;37.81
6899;BME280;3488;42.616;23.350;2023-06-10T12:24:45;65020.22;;;29.10;36.06
6899;BME280;3488;42.616;23.350;2023-06-10T12:27:12;65044.41;;;29.35;37.28
6899;BME280;3488;42.616;23.350;2023-06-10T12:29:39;65031.78;;;29.23;35.67
6899;BME280;3488;42.616;23.350;2023-06-10T12:32:17;64944.03;;;28.39;39.19
6899;BME280;3488;42.616;23.350;2023-06-10T12:34:45;64909.94;;;28.07;41.03
6899;BME280;3488;42.616;23.350;2023-06-10T12:37:14;64870.56;;;27.69;39.52
6899;BME280;3488;42.616;23.350;2023-06-10T12:39:42;64884.19;;;27.80;39.84
6899;BME280;3488;42.616;23.350;2023-06-10T12:42:12;64882.59;;;27.81;39.26
6899;BME280;3488;42.616;23.350;2023-06-10T12:44:40;64930.41;;;28.26;38.73
6899;BME280;3488;42.616;23.350;2023-06-10T12:47:08;64949.28;;;28.39;40.00
6899;BME280;3488;42.616;23.350;2023-06-10T12:49:37;64951.91;;;28.44;38.19
6899;BME280;3488;42.616;23.350;2023-06-10T12:52:05;64942.47;;;28.40;39.31
6899;BME280;3488;42.616;23.350;2023-06-10T12:54:34;64886.31;;;27.92;38.75
6899;BME280;3488;42.616;23.350;2023-06-10T12:57:02;64859.53;;;27.59;39.26
6899;BME280;3488;42.616;23.350;2023-06-10T12:59:29;64866.88;;;27.66;40.30
6899;BME280;3488;42.616;23.350;2023-06-10T13:01:57;64872.66;;;27.71;38.79
6899;BME280;3488;42.616;23.350;2023-06-10T13:04:25;64862.13;;;27.61;40.25
6899;BME280;3488;42.616;23.350;2023-06-10T13:06:52;64833.28;;;27.36;40.91
6899;BME280;3488;42.616;23.350;2023-06-10T13:09:19;64793.41;;;26.98;40.67
6899;BME280;3488;42.616;23.350;2023-06-10T13:11:48;64798.66;;;27.00;41.99
6899;BME280;3488;42.616;23.350;2023-06-10T13:14:15;64802.31;;;26.99;42.29